Time;durP1;ratioP1;P1;durP2;ratioP2;P2;SDS_P1;SDS_P2;PMS_P1;PMS_P2;Temp;Humidity;BMP_temperature;BMP_pressure;BME280_temperature;BME280_humidity;BME280_pressure;Samples;Min_cycle;Max_cycle;Signal;HPM_P1;HPM_P2
2023/06/13 00:00:32;;;;;;;11.88;8.70;;;;;;;19.15;100.00;99558.84;5008202;28;20553;-18
2023/06/13 00:02:58;;;;;;;11.40;9.35;;;;;;;18.82;100.00;99551.34;5008020;28;20038;-18
2023/06/13 00:05:23;;;;;;;12.20;9.70;;;;;;;18.91;100.00;99559.63;5007701;28;20029;-18
2023/06/13 00:07:49;;;;;;;12.18;8.88;;;;;;;19.12;100.00;99565.59;5008161;28;20436;-18
2023/06/13 00:10:15;;;;;;;13.85;9.35;;;;;;;18.74;100.00;99551.16;5006664;28;20045;-20
2023/06/13 00:12:41;;;;;;;12.00;8.95;;;;;;;18.72;100.00;99551.44;5008022;28;20044;-19
2023/06/13 00:15:06;;;;;;;13.15;9.73;;;;;;;18.95;100.00;99554.47;5007597;28;20872;-18
2023/06/13 00:17:32;;;;;;;11.75;9.10;;;;;;;18.78;100.00;99552.97;5007499;28;20026;-18
2023/06/13 00:20:03;;;;;;;12.10;9.70;;;;;;;18.64;100.00;99538.53;5007507;28;20406;-18
2023/06/13 00:22:28;;;;;;;13.25;9.85;;;;;;;18.62;100.00;99552.31;5007948;28;20108;-18
2023/06/13 00:24:54;;;;;;;12.18;9.27;;;;;;;18.70;100.00;99542.81;5007366;28;20471;-19
2023/06/13 00:27:19;;;;;;;11.48;8.38;;;;;;;18.73;100.00;99547.63;5007856;28;20029;-18
2023/06/13 00:29:45;;;;;;;11.48;8.82;;;;;;;18.87;100.00;99553.97;5007591;28;20105;-19
2023/06/13 00:32:10;;;;;;;12.45;8.73;;;;;;;18.98;100.00;99553.88;5007839;28;20480;-18
2023/06/13 00:34:38;;;;;;;11.70;8.27;;;;;;;18.61;100.00;99541.78;5007122;28;20398;-19
2023/06/13 00:37:04;;;;;;;12.48;7.80;;;;;;;18.55;100.00;99534.84;5007383;28;20022;-19
2023/06/13 00:39:30;;;;;;;9.43;7.60;;;;;;;18.51;100.00;99550.00;4989981;28;20034;-19
2023/06/13 00:41:55;;;;;;;9.80;7.65;;;;;;;18.34;100.00;99551.22;5006730;28;20095;-16
2023/06/13 00:44:21;;;;;;;11.57;7.68;;;;;;;18.41;100.00;99551.72;5007122;28;20504;-18
2023/06/13 00:46:46;;;;;;;10.65;7.18;;;;;;;18.23;100.00;99560.50;5006999;28;20060;-18
2023/06/13 00:49:13;;;;;;;10.30;7.22;;;;;;;18.31;100.00;99551.78;5007344;28;20032;-18
2023/06/13 00:51:42;;;;;;;8.85;6.57;;;;;;;18.24;100.00;99556.69;5007083;28;20060;-18
2023/06/13 00:54:13;;;;;;;11.63;6.50;;;;;;;18.18;100.00;99552.44;5006968;28;20029;-19
2023/06/13 00:56:40;;;;;;;9.48;6.63;;;;;;;18.25;100.00;99547.53;5007460;28;20040;-18
2023/06/13 00:59:07;;;;;;;9.75;6.97;;;;;;;18.26;100.00;99549.91;5006932;28;20029;-19
2023/06/13 01:01:34;;;;;;;8.90;6.13;;;;;;;18.12;100.00;99542.75;5006756;28;20103;-17
2023/06/13 01:03:59;;;;;;;7.97;5.80;;;;;;;18.39;100.00;99558.50;5006919;28;20494;-21
2023/06/13 01:06:30;;;;;;;8.38;5.82;;;;;;;18.44;100.00;99540.31;5006878;28;20033;-19
2023/06/13 01:08:58;;;;;;;9.40;5.78;;;;;;;18.29;100.00;99540.47;5006714;28;20024;-18
2023/06/13 01:11:33;;;;;;;8.18;5.72;;;;;;;18.31;99.94;99540.16;5006626;28;20030;-19
2023/06/13 01:14:05;;;;;;;8.43;5.90;;;;;;;18.39;100.00;99551.19;5006779;28;20516;-20
2023/06/13 01:17:14;;;;;;;8.85;5.65;;;;;;;18.26;100.00;99549.13;5006599;28;20079;-18
2023/06/13 01:19:43;;;;;;;7.53;5.55;;;;;;;18.38;100.00;99552.25;5001492;28;20766;-18
2023/06/13 01:22:17;;;;;;;9.18;5.82;;;;;;;18.11;100.00;99550.06;5006111;28;20041;-17
2023/06/13 01:25:10;;;;;;;8.68;6.47;;;;;;;18.07;100.00;99552.50;5006707;28;20033;-19
2023/06/13 01:27:38;;;;;;;9.15;6.05;;;;;;;17.80;100.00;99558.31;5006536;28;20030;-18
2023/06/13 01:30:04;;;;;;;7.78;5.88;;;;;;;17.82;100.00;99553.47;5006530;28;20049;-19
2023/06/13 01:32:31;;;;;;;7.75;6.25;;;;;;;17.80;100.00;99554.84;5006334;28;20026;-19
2023/06/13 01:34:58;;;;;;;8.10;6.23;;;;;;;17.89;100.00;99558.56;5006313;28;20058;-19
2023/06/13 01:37:24;;;;;;;8.10;6.22;;;;;;;17.73;100.00;99557.00;5005951;28;20053;-19
2023/06/13 01:39:49;;;;;;;9.48;6.63;;;;;;;17.82;100.00;99558.06;5006371;28;20425;-18
2023/06/13 01:42:15;;;;;;;8.15;6.20;;;;;;;17.85;100.00;99544.03;5006127;28;20060;-19
2023/06/13 01:44:41;;;;;;;9.38;5.97;;;;;;;17.83;100.00;99556.97;5006176;28;20421;-19
2023/06/13 01:47:22;;;;;;;10.18;6.03;;;;;;;17.78;100.00;99548.91;5006149;28;20030;-18
2023/06/13 01:49:57;;;;;;;8.00;6.15;;;;;;;17.88;100.00;99559.66;5005797;28;20569;-18
2023/06/13 01:52:52;;;;;;;10.02;6.53;;;;;;;17.79;100.00;99551.31;5006175;28;20104;-20
2023/06/13 01:55:26;;;;;;;10.15;6.40;;;;;;;17.67;100.00;99551.66;5006140;28;20030;-18
2023/06/13 01:58:02;;;;;;;8.70;6.53;;;;;;;17.63;100.00;99531.75;5005992;28;20044;-18
2023/06/13 02:00:28;;;;;;;8.60;6.38;;;;;;;17.75;100.00;99549.44;5005923;28;20591;-19
2023/06/13 02:02:55;;;;;;;7.97;6.63;;;;;;;17.94;100.00;99550.44;5005759;28;20022;-18
2023/06/13 02:05:20;;;;;;;8.88;7.05;;;;;;;17.93;100.00;99529.94;5005886;28;20033;-18
2023/06/13 02:07:46;;;;;;;9.63;7.07;;;;;;;17.96;100.00;99542.06;5005568;28;20041;-18
2023/06/13 02:10:11;;;;;;;12.98;7.00;;;;;;;17.91;100.00;99547.50;5006107;28;20073;-18
2023/06/13 02:12:38;;;;;;;12.52;7.07;;;;;;;18.12;100.00;99548.94;5005642;28;20054;-23
2023/06/13 02:15:04;;;;;;;9.63;7.07;;;;;;;18.14;100.00;99551.38;5006038;28;20092;-19
2023/06/13 02:17:30;;;;;;;9.82;6.18;;;;;;;17.79;100.00;99545.13;5005605;28;20022;-19
2023/06/13 02:19:55;;;;;;;7.85;6.40;;;;;;;17.72;100.00;99547.31;5005802;28;20022;-18
2023/06/13 02:22:20;;;;;;;9.50;6.50;;;;;;;17.81;100.00;99553.72;5005858;28;20030;-18
2023/06/13 02:24:47;;;;;;;7.97;6.30;;;;;;;17.74;100.00;99553.25;5005649;28;20048;-22
2023/06/13 02:27:12;;;;;;;8.55;6.35;;;;;;;17.83;100.00;99547.00;5005727;28;20405;-18
2023/06/13 02:29:38;;;;;;;7.85;5.82;;;;;;;17.91;100.00;99548.31;5005449;28;20489;-19
2023/06/13 02:32:05;;;;;;;9.35;6.53;;;;;;;17.79;100.00;99555.91;5005924;28;20036;-19
2023/06/13 02:34:30;;;;;;;10.13;5.75;;;;;;;17.53;100.00;99563.31;5008773;28;20026;-19
2023/06/13 02:36:55;;;;;;;10.35;6.53;;;;;;;17.66;100.00;99566.22;5009834;28;20033;-18
2023/06/13 02:39:22;;;;;;;9.05;5.68;;;;;;;17.71;100.00;99561.88;5009685;28;20034;-18
2023/06/13 02:41:48;;;;;;;11.23;5.90;;;;;;;17.67;100.00;99570.53;5009184;28;20056;-20
2023/06/13 02:44:13;;;;;;;9.10;6.82;;;;;;;17.65;100.00;99571.88;5009578;28;20437;-19
2023/06/13 02:46:38;;;;;;;8.07;5.60;;;;;;;17.54;100.00;99563.03;5009368;28;20030;-20
2023/06/13 02:49:04;;;;;;;10.90;5.88;;;;;;;17.55;100.00;99571.94;5009721;28;20048;-18
2023/06/13 02:51:30;;;;;;;7.88;5.82;;;;;;;17.55;100.00;99570.06;5009177;28;20030;-18
2023/06/13 02:53:55;;;;;;;7.70;5.40;;;;;;;17.57;100.00;99585.94;5009482;28;20022;-18
2023/06/13 02:56:20;;;;;;;9.43;5.07;;;;;;;17.60;100.00;99580.00;5009168;28;20030;-18
2023/06/13 02:58:46;;;;;;;7.53;5.47;;;;;;;17.58;100.00;99582.19;5009260;28;20394;-18
2023/06/13 03:01:12;;;;;;;8.48;5.78;;;;;;;17.64;100.00;99581.88;5009100;28;20116;-18
2023/06/13 03:03:37;;;;;;;9.98;5.82;;;;;;;17.71;100.00;99583.44;5009116;28;20034;-18
2023/06/13 03:06:04;;;;;;;8.25;5.88;;;;;;;17.49;100.00;99590.03;5009200;28;20030;-18
2023/06/13 03:08:30;;;;;;;9.70;5.45;;;;;;;17.27;100.00;99593.09;5008861;28;20181;-19
2023/06/13 03:10:56;;;;;;;9.50;6.00;;;;;;;17.24;100.00;99593.63;5009061;28;20105;-18
2023/06/13 03:13:22;;;;;;;8.60;6.43;;;;;;;17.35;100.00;99589.03;5008854;28;20116;-18
2023/06/13 03:15:47;;;;;;;7.88;5.43;;;;;;;17.45;100.00;99586.28;5009323;28;20401;-18
2023/06/13 03:18:17;;;;;;;8.95;6.25;;;;;;;17.45;100.00;99597.06;5008705;28;20102;-18
2023/06/13 03:20:45;;;;;;;12.95;6.13;;;;;;;17.41;100.00;99590.63;5009054;28;20065;-18
2023/06/13 03:23:12;;;;;;;;;;;;;;;17.45;100.00;99583.59;5009503;28;20030;-19
2023/06/13 03:25:38;;;;;;;8.75;5.68;;;;;;;17.43;100.00;99585.75;5008598;28;19913;-16
2023/06/13 03:28:04;;;;;;;10.68;5.70;;;;;;;17.35;100.00;99594.41;5008959;28;20030;-18
2023/06/13 03:30:29;;;;;;;12.20;7.03;;;;;;;17.44;100.00;99592.75;5008605;28;20143;-19
2023/06/13 03:32:55;;;;;;;8.45;5.90;;;;;;;17.48;100.00;99583.81;5008734;28;20033;-18
2023/06/13 03:35:20;;;;;;;10.32;5.55;;;;;;;17.65;100.00;99588.88;5008714;28;20037;-18
2023/06/13 03:37:46;;;;;;;7.50;5.55;;;;;;;17.79;100.00;99596.34;5008434;28;20042;-18
2023/06/13 03:40:11;;;;;;;10.48;5.57;;;;;;;17.74;100.00;99591.81;5008392;28;20565;-18
2023/06/13 03:42:37;;;;;;;9.60;5.97;;;;;;;17.59;100.00;99592.69;5008163;28;20219;-18
2023/06/13 03:45:03;;;;;;;8.70;5.60;;;;;;;17.44;100.00;99596.25;5008275;28;20076;-20
2023/06/13 03:47:28;;;;;;;10.63;5.93;;;;;;;17.42;100.00;99587.63;5008188;28;20026;-18
2023/06/13 03:49:54;;;;;;;8.88;5.50;;;;;;;17.40;100.00;99583.59;5008240;28;20492;-17
2023/06/13 03:52:19;;;;;;;9.13;5.85;;;;;;;17.45;100.00;99586.28;5007958;28;20497;-19
2023/06/13 03:54:45;;;;;;;9.98;6.43;;;;;;;17.70;100.00;99574.56;5008573;28;20739;-18
2023/06/13 03:57:12;;;;;;;10.15;5.68;;;;;;;17.87;100.00;99568.81;5007918;28;20037;-19
2023/06/13 03:59:38;;;;;;;8.57;5.70;;;;;;;17.76;100.00;99594.22;5006839;28;20413;-18
2023/06/13 04:02:03;;;;;;;8.48;6.45;;;;;;;17.83;100.00;99590.16;5008092;28;20489;-20
2023/06/13 04:04:29;;;;;;;13.23;7.07;;;;;;;17.97;99.92;99584.94;5007995;28;20030;-18
2023/06/13 04:06:55;;;;;;;14.43;6.80;;;;;;;17.83;100.00;99589.34;5007986;28;20029;-18
2023/06/13 04:09:21;;;;;;;11.38;6.72;;;;;;;18.03;100.00;99600.03;5007821;28;20088;-18
2023/06/13 04:11:46;;;;;;;10.05;6.43;;;;;;;18.10;99.97;99591.59;5008055;28;20088;-18
2023/06/13 04:14:11;;;;;;;10.43;7.38;;;;;;;18.10;100.00;99598.91;5007678;28;20410;-20
2023/06/13 04:16:37;;;;;;;12.73;8.65;;;;;;;18.29;98.79;99607.97;5007805;28;20416;-18
2023/06/13 04:19:02;;;;;;;12.45;8.80;;;;;;;18.41;98.98;99605.69;5007564;28;20026;-18
2023/06/13 04:21:28;;;;;;;11.48;8.57;;;;;;;18.30;99.54;99609.56;5007716;28;20040;-19
2023/06/13 04:23:54;;;;;;;13.10;9.63;;;;;;;18.51;98.34;99604.81;5007528;28;20081;-18
2023/06/13 04:26:20;;;;;;;15.18;9.23;;;;;;;18.67;97.49;99610.88;5007679;28;20022;-18
2023/06/13 04:28:47;;;;;;;12.02;8.13;;;;;;;18.52;97.72;99592.13;5008021;28;20029;-21
2023/06/13 04:31:13;;;;;;;11.18;7.18;;;;;;;18.64;96.93;99619.56;5007667;28;20433;-20
2023/06/13 04:33:39;;;;;;;12.43;7.20;;;;;;;18.82;95.81;99615.38;5007347;28;20034;-20
2023/06/13 04:36:08;;;;;;;10.23;6.70;;;;;;;18.46;97.65;99619.16;5007219;28;20057;-19
2023/06/13 04:38:39;;;;;;;7.43;5.70;;;;;;;18.78;95.66;99619.72;5007245;28;20040;-18
2023/06/13 04:41:09;;;;;;;9.93;6.05;;;;;;;18.77;94.98;99627.00;5007311;28;20080;-18
2023/06/13 04:43:38;;;;;;;10.60;6.18;;;;;;;18.47;96.64;99622.69;5007162;28;20049;-18
2023/06/13 04:46:04;;;;;;;8.73;5.63;;;;;;;18.54;95.83;99627.75;5007170;28;20034;-18
2023/06/13 04:48:30;;;;;;;7.68;5.43;;;;;;;18.66;95.97;99620.09;5007274;28;20036;-19
2023/06/13 04:50:58;;;;;;;8.95;6.13;;;;;;;18.92;94.17;99626.09;5007036;28;20030;-19
2023/06/13 04:53:26;;;;;;;10.18;5.80;;;;;;;18.71;94.72;99630.03;5007331;28;20072;-18
2023/06/13 04:55:52;;;;;;;7.57;5.50;;;;;;;18.72;96.41;99626.25;5006222;28;20030;-18
2023/06/13 04:58:18;;;;;;;11.25;6.35;;;;;;;18.83;95.05;99634.00;5007232;28;20030;-19
2023/06/13 05:00:48;;;;;;;10.18;6.43;;;;;;;19.07;93.82;99630.53;5006983;28;20022;-17
2023/06/13 05:03:16;;;;;;;8.93;5.82;;;;;;;19.11;93.67;99650.50;5006827;28;20045;-19
2023/06/13 05:05:46;;;;;;;10.38;5.60;;;;;;;19.22;92.96;99641.19;5007063;28;20040;-19
2023/06/13 05:08:14;;;;;;;11.65;6.30;;;;;;;19.25;93.48;99646.03;5006816;28;20021;-20
2023/06/13 05:10:43;;;;;;;8.57;5.80;;;;;;;19.19;93.06;99647.16;5006725;28;20030;-18
2023/06/13 05:13:08;;;;;;;9.35;5.78;;;;;;;19.41;90.83;99649.38;5006585;28;20076;-18
2023/06/13 05:15:34;;;;;;;8.15;5.68;;;;;;;19.55;90.80;99648.66;5006713;28;20018;-18
2023/06/13 05:18:00;;;;;;;8.18;5.75;;;;;;;19.67;89.72;99655.25;5006623;28;20045;-19
2023/06/13 05:20:26;;;;;;;8.10;5.50;;;;;;;19.58;90.34;99656.22;5006572;28;20469;-18
2023/06/13 05:22:56;;;;;;;8.98;6.30;;;;;;;19.56;90.60;99645.69;5006501;28;20030;-18
2023/06/13 05:25:21;;;;;;;10.50;6.05;;;;;;;19.48;89.87;99665.25;5005032;28;20030;-18
2023/06/13 05:27:47;;;;;;;8.68;5.90;;;;;;;19.09;92.43;99658.09;5006438;28;20088;-19
2023/06/13 05:30:13;;;;;;;8.38;5.55;;;;;;;19.28;92.24;99656.25;5006294;28;20034;-19
2023/06/13 05:32:38;;;;;;;8.20;5.03;;;;;;;19.52;90.60;99666.28;5006026;28;20028;-19
2023/06/13 05:35:08;;;;;;;9.40;5.68;;;;;;;19.37;91.91;99663.72;5006487;28;20034;-17
2023/06/13 05:37:36;;;;;;;7.68;5.40;;;;;;;19.63;90.22;99662.34;5006605;28;20420;-18
2023/06/13 05:40:02;;;;;;;7.80;5.65;;;;;;;19.55;90.11;99670.31;5005998;28;20034;-18
2023/06/13 05:42:27;;;;;;;9.82;5.53;;;;;;;19.70;89.69;99672.03;5006090;28;20058;-18
2023/06/13 05:44:52;;;;;;;10.82;5.82;;;;;;;19.83;89.70;99674.84;5005726;28;20473;-18
2023/06/13 05:47:18;;;;;;;8.07;5.72;;;;;;;19.61;90.25;99678.06;5006432;28;20044;-18
2023/06/13 05:49:43;;;;;;;9.95;6.43;;;;;;;19.65;90.79;99681.81;5006292;28;20034;-19
2023/06/13 05:52:09;;;;;;;8.23;6.20;;;;;;;20.02;89.26;99674.06;5006074;28;20033;-18
2023/06/13 05:54:35;;;;;;;11.27;6.15;;;;;;;20.03;89.50;99686.53;5005882;28;20445;-19
2023/06/13 05:57:00;;;;;;;9.38;6.15;;;;;;;20.31;88.56;99682.09;5005895;28;20021;-19
2023/06/13 05:59:26;;;;;;;10.30;6.22;;;;;;;20.25;87.50;99678.63;5004893;28;20036;-19
2023/06/13 06:01:52;;;;;;;7.78;6.32;;;;;;;20.37;87.09;99672.78;5005190;28;20033;-20
2023/06/13 06:04:17;;;;;;;10.07;7.20;;;;;;;20.27;87.56;99681.84;5005375;28;20022;-18
2023/06/13 06:06:44;;;;;;;8.65;5.95;;;;;;;20.34;87.87;99686.91;5005712;28;20464;-18
2023/06/13 06:09:10;;;;;;;17.45;11.25;;;;;;;20.45;88.28;99677.53;5006064;28;20088;-18
2023/06/13 06:11:36;;;;;;;7.97;6.13;;;;;;;20.58;87.28;99681.44;5006047;28;20026;-19
2023/06/13 06:14:02;;;;;;;9.18;6.00;;;;;;;20.70;85.82;99683.69;5005439;28;20030;-18
2023/06/13 06:16:27;;;;;;;10.68;7.47;;;;;;;20.73;85.51;99677.66;5005834;28;20095;-18
2023/06/13 06:18:53;;;;;;;9.23;5.40;;;;;;;20.57;85.50;99678.97;5005788;28;20699;-17
2023/06/13 06:21:19;;;;;;;8.38;5.53;;;;;;;20.78;86.48;99690.31;5005911;28;20037;-18
2023/06/13 06:23:45;;;;;;;10.20;5.82;;;;;;;20.86;87.11;99693.19;5005221;28;20034;-17
2023/06/13 06:26:11;;;;;;;9.02;5.80;;;;;;;21.05;85.81;99681.47;5005653;28;20460;-17
2023/06/13 06:28:36;;;;;;;10.63;6.00;;;;;;;21.14;85.54;99687.81;5005380;28;20116;-17
2023/06/13 06:31:05;;;;;;;9.07;6.32;;;;;;;20.97;85.30;99680.25;5005600;28;20040;-17
2023/06/13 06:33:30;;;;;;;10.93;6.45;;;;;;;21.03;85.84;99681.78;5005453;28;20033;-18
2023/06/13 06:35:56;;;;;;;9.73;6.47;;;;;;;21.43;85.12;99693.03;5005723;28;20054;-17
2023/06/13 06:38:21;;;;;;;9.20;5.40;;;;;;;21.24;82.12;99686.84;5005169;28;20033;-20
2023/06/13 06:40:46;;;;;;;7.47;5.90;;;;;;;21.20;81.81;99681.19;5004848;28;20519;-17
2023/06/13 06:43:12;;;;;;;7.82;5.78;;;;;;;20.95;84.49;99679.75;5004458;28;20537;-18
2023/06/13 06:45:37;;;;;;;7.47;5.32;;;;;;;21.11;83.44;99683.00;5004551;28;20459;-17
2023/06/13 06:48:03;;;;;;;10.50;5.75;;;;;;;21.24;83.26;99676.78;5005153;28;20091;-17
2023/06/13 06:50:29;;;;;;;9.85;5.22;;;;;;;21.33;82.01;99684.22;5004837;28;20030;-17
2023/06/13 06:52:54;;;;;;;8.50;4.95;;;;;;;21.64;81.46;99679.06;5005191;28;20060;-17
2023/06/13 06:55:20;;;;;;;10.65;5.35;;;;;;;21.73;80.10;99671.00;5005033;28;20034;-20
2023/06/13 06:57:45;;;;;;;8.73;5.75;;;;;;;22.02;77.44;99678.81;5005478;28;20030;-17
2023/06/13 07:00:14;;;;;;;6.88;4.95;;;;;;;21.99;76.42;99679.44;5004974;28;20036;-18
2023/06/13 07:02:43;;;;;;;7.75;5.10;;;;;;;22.07;76.11;99673.28;5005086;28;20088;-17
2023/06/13 07:05:09;;;;;;;8.10;5.38;;;;;;;21.91;77.12;99667.38;5004957;28;20030;-19
2023/06/13 07:07:35;;;;;;;10.20;4.90;;;;;;;21.94;76.82;99671.38;5004950;28;20122;-17
2023/06/13 07:10:01;;;;;;;6.40;4.53;;;;;;;21.62;76.46;99670.44;5005401;28;20109;-17
2023/06/13 07:12:26;;;;;;;7.75;4.97;;;;;;;21.74;76.59;99667.19;5005046;28;20061;-17
2023/06/13 07:14:52;;;;;;;6.88;5.05;;;;;;;21.72;75.02;99672.94;5005126;28;20424;-17
2023/06/13 07:17:17;;;;;;;6.65;4.90;;;;;;;22.05;73.74;99668.16;5005293;28;20479;-19
2023/06/13 07:19:43;;;;;;;8.23;4.47;;;;;;;21.93;74.27;99670.59;5006796;28;20051;-17
2023/06/13 07:22:08;;;;;;;5.90;4.65;;;;;;;21.84;74.84;99659.66;5008834;28;20052;-17
2023/06/13 07:24:33;;;;;;;7.80;4.70;;;;;;;21.86;74.50;99653.91;5008741;28;20030;-17
2023/06/13 07:26:59;;;;;;;6.70;4.53;;;;;;;22.14;74.82;99664.72;5008773;28;20042;-17
2023/06/13 07:29:24;;;;;;;6.97;4.82;;;;;;;22.33;73.98;99657.25;5008386;28;20026;-17
2023/06/13 07:31:50;;;;;;;9.50;4.70;;;;;;;22.48;74.74;99658.00;5008865;28;20076;-19
2023/06/13 07:34:16;;;;;;;43.45;6.45;;;;;;;22.34;74.35;99661.56;5008698;28;20428;-18
2023/06/13 07:36:41;;;;;;;7.25;4.57;;;;;;;22.70;73.11;99655.28;5008418;28;20030;-19
2023/06/13 07:39:12;;;;;;;5.85;4.35;;;;;;;22.86;69.40;99659.22;5008316;28;20033;-17
2023/06/13 07:41:38;;;;;;;8.07;4.30;;;;;;;23.00;66.87;99674.66;5008091;28;20389;-20
2023/06/13 07:44:05;;;;;;;8.57;4.32;;;;;;;22.85;66.59;99664.97;5008275;28;20107;-18
2023/06/13 07:46:30;;;;;;;6.50;4.20;;;;;;;22.89;66.13;99670.59;5008279;28;20079;-17
2023/06/13 07:48:56;;;;;;;9.45;4.85;;;;;;;22.87;67.08;99649.94;5008564;28;20037;-17
2023/06/13 07:51:21;;;;;;;5.90;4.28;;;;;;;23.30;64.58;99664.13;5008010;28;20412;-18
2023/06/13 07:53:47;;;;;;;7.95;4.88;;;;;;;22.98;64.28;99660.56;5008412;28;20416;-17
2023/06/13 07:56:12;;;;;;;9.25;4.22;;;;;;;22.85;65.86;99671.19;5008183;28;20026;-18
2023/06/13 07:58:38;;;;;;;8.98;4.53;;;;;;;23.31;64.96;99660.25;5008246;28;20029;-18
2023/06/13 08:01:04;;;;;;;8.00;4.70;;;;;;;23.36;65.24;99665.59;5008239;28;20040;-17
2023/06/13 08:03:29;;;;;;;11.10;6.25;;;;;;;23.52;65.16;99664.03;5007843;28;20038;-17
2023/06/13 08:05:55;;;;;;;13.27;7.07;;;;;;;23.41;64.42;99670.88;5007942;28;20460;-17
2023/06/13 08:08:20;;;;;;;24.80;12.80;;;;;;;23.86;64.73;99668.00;5007886;28;20109;-24
2023/06/13 08:10:46;;;;;;;19.73;11.35;;;;;;;23.68;64.65;99661.69;5007981;28;20145;-17
2023/06/13 08:13:11;;;;;;;20.17;12.57;;;;;;;24.03;63.78;99667.25;4990036;28;20038;-19
2023/06/13 08:15:37;;;;;;;25.50;13.43;;;;;;;23.97;62.87;99666.59;5007696;28;20485;-17
2023/06/13 08:18:04;;;;;;;7.03;4.60;;;;;;;24.04;61.66;99664.16;5007384;28;20037;-17
2023/06/13 08:20:30;;;;;;;7.65;5.22;;;;;;;23.95;63.58;99657.94;5007846;28;20034;-18
2023/06/13 08:22:56;;;;;;;8.63;4.95;;;;;;;24.27;62.97;99661.31;5007655;28;20467;-19
2023/06/13 08:25:21;;;;;;;10.00;4.90;;;;;;;24.44;63.03;99655.06;5007422;28;20040;-19
2023/06/13 08:27:48;;;;;;;9.55;5.30;;;;;;;24.56;62.65;99651.69;5007627;28;20030;-17
2023/06/13 08:30:15;;;;;;;10.18;5.15;;;;;;;25.01;59.82;99657.56;5006803;28;20068;-18
2023/06/13 08:32:41;;;;;;;9.05;4.70;;;;;;;24.85;59.37;99646.38;5007203;28;20095;-17
2023/06/13 08:35:07;;;;;;;9.40;4.93;;;;;;;24.74;59.01;99636.91;5007159;28;20034;-18
2023/06/13 08:37:32;;;;;;;7.18;4.55;;;;;;;25.09;58.74;99642.31;5007187;28;20034;-17
2023/06/13 08:39:58;;;;;;;9.85;4.60;;;;;;;25.11;60.51;99631.88;5007151;28;20402;-19
2023/06/13 08:42:25;;;;;;;8.25;5.93;;;;;;;25.26;59.68;99625.88;5007137;28;20081;-18
2023/06/13 08:44:51;;;;;;;6.65;4.93;;;;;;;25.24;58.51;99633.59;5007448;28;20030;-22
2023/06/13 08:47:18;;;;;;;6.05;4.93;;;;;;;25.14;59.24;99625.72;5007267;28;20033;-17
2023/06/13 08:49:48;;;;;;;10.05;5.35;;;;;;;25.33;58.42;99632.75;5007291;28;20120;-17
2023/06/13 08:52:16;;;;;;;9.18;4.97;;;;;;;25.78;56.00;99627.50;5006895;28;20061;-17
2023/06/13 08:54:44;;;;;;;9.88;5.25;;;;;;;25.91;59.69;99609.31;5006787;28;20026;-17
2023/06/13 08:57:14;;;;;;;10.10;5.20;;;;;;;25.81;53.69;99628.78;5007110;28;20026;-17
2023/06/13 08:59:44;;;;;;;10.15;5.03;;;;;;;25.74;56.11;99612.91;5007027;28;20034;-18
2023/06/13 09:02:12;;;;;;;7.05;5.10;;;;;;;25.37;58.26;99620.84;5006844;28;20124;-17
2023/06/13 09:04:38;;;;;;;7.65;4.45;;;;;;;25.12;56.40;99619.81;5006563;28;20571;-18
2023/06/13 09:07:04;;;;;;;9.45;4.95;;;;;;;25.43;58.09;99621.47;5003008;28;20042;-20
2023/06/13 09:09:30;;;;;;;7.78;4.88;;;;;;;25.58;58.40;99617.34;5005969;28;20037;-17
2023/06/13 09:11:57;;;;;;;7.47;5.60;;;;;;;25.57;56.87;99613.03;5006152;28;20034;-18
2023/06/13 09:14:22;;;;;;;12.32;5.30;;;;;;;25.43;56.00;99618.72;5006738;28;20492;-19
2023/06/13 09:16:54;;;;;;;8.48;5.43;;;;;;;25.80;52.77;99611.59;5006641;28;20029;-17
2023/06/13 09:19:19;;;;;;;9.40;4.70;;;;;;;25.97;52.36;99624.38;5000946;28;20100;-18
2023/06/13 09:21:45;;;;;;;9.18;5.30;;;;;;;26.56;52.98;99619.84;4986841;28;20038;-17
2023/06/13 09:24:12;;;;;;;9.00;5.57;;;;;;;27.00;52.31;99612.00;4986944;28;20054;-18
2023/06/13 09:26:39;;;;;;;7.07;5.40;;;;;;;26.01;52.45;99613.56;4986966;28;20045;-19
2023/06/13 09:29:07;;;;;;;11.25;5.13;;;;;;;26.08;52.30;99611.09;4986933;28;20092;-20
2023/06/13 09:31:37;;;;;;;6.75;5.20;;;;;;;26.03;53.57;99603.91;4986774;28;20041;-16
2023/06/13 09:34:03;;;;;;;12.55;5.60;;;;;;;26.62;49.42;99613.88;4986433;28;20540;-18
2023/06/13 09:36:28;;;;;;;8.30;5.78;;;;;;;26.92;50.65;99615.63;4986613;28;20026;-18
2023/06/13 09:38:54;;;;;;;9.50;5.20;;;;;;;26.94;50.87;99607.88;4986496;28;20037;-18
2023/06/13 09:41:20;;;;;;;12.45;5.47;;;;;;;27.31;45.82;99594.25;4986932;28;20088;-19
2023/06/13 09:43:46;;;;;;;11.48;5.50;;;;;;;27.98;46.64;99601.00;4986060;28;20503;-25
2023/06/13 09:46:14;;;;;;;10.63;4.82;;;;;;;27.73;45.10;99611.22;4986727;28;20037;-18
2023/06/13 09:48:45;;;;;;;8.07;5.05;;;;;;;27.90;43.22;99612.91;4986362;28;20026;-18
2023/06/13 09:51:12;;;;;;;7.60;5.43;;;;;;;27.24;46.83;99605.78;4986330;28;20038;-17
2023/06/13 09:53:39;;;;;;;8.30;4.40;;;;;;;27.08;44.21;99607.56;4986530;28;20181;-20
2023/06/13 09:56:09;;;;;;;7.07;4.65;;;;;;;27.28;45.86;99612.16;4986492;28;20038;-18
2023/06/13 09:58:38;;;;;;;10.18;4.68;;;;;;;26.64;48.04;99594.34;4986700;28;20050;-17
2023/06/13 10:01:03;;;;;;;6.78;4.63;;;;;;;26.17;48.96;99602.81;4986264;28;20479;-18
2023/06/13 10:03:30;;;;;;;8.25;4.82;;;;;;;26.31;47.79;99583.41;4986226;28;20038;-18
2023/06/13 10:05:59;;;;;;;6.43;4.57;;;;;;;26.90;48.37;99601.50;4986362;28;20026;-18
2023/06/13 10:08:24;;;;;;;6.95;4.38;;;;;;;27.48;45.58;99604.16;4986275;28;20069;-17
2023/06/13 10:10:50;;;;;;;7.85;4.60;;;;;;;28.08;45.05;99609.91;4986269;28;20112;-18
2023/06/13 10:13:19;;;;;;;8.93;4.50;;;;;;;28.10;44.26;99593.91;4986266;28;20033;-18
2023/06/13 10:15:51;;;;;;;7.97;4.70;;;;;;;27.62;44.22;99597.19;4985976;28;20034;-21
2023/06/13 10:18:20;;;;;;;6.57;4.68;;;;;;;27.45;44.42;99600.97;4986560;28;20034;-18
2023/06/13 10:20:48;;;;;;;9.98;4.55;;;;;;;27.16;43.97;99582.81;4986020;28;20026;-19
2023/06/13 10:23:16;;;;;;;7.07;4.78;;;;;;;26.89;45.63;99588.94;4986102;28;20072;-18
2023/06/13 10:25:44;;;;;;;6.60;4.57;;;;;;;26.21;47.59;99584.63;4986078;28;20041;-18
2023/06/13 10:28:43;;;;;;;7.35;4.55;;;;;;;26.26;48.36;99589.91;4985949;28;20105;-18
2023/06/13 10:31:26;;;;;;;6.53;4.50;;;;;;;26.26;47.27;99578.97;4985599;28;20039;-18
2023/06/13 10:34:07;;;;;;;7.00;4.60;;;;;;;27.01;44.87;99580.75;4986004;28;20123;-19
2023/06/13 10:37:10;;;;;;;7.72;4.60;;;;;;;26.82;45.13;99590.28;4985830;28;20026;-19
2023/06/13 10:39:45;;;;;;;6.05;4.40;;;;;;;27.79;44.02;99581.63;4986063;28;20033;-18
2023/06/13 10:42:22;;;;;;;9.43;4.35;;;;;;;28.47;44.22;99577.28;4985400;28;20042;-18
2023/06/13 10:45:08;;;;;;;6.68;4.10;;;;;;;27.99;42.86;99586.19;4985954;28;20497;-18
2023/06/13 10:47:37;;;;;;;7.68;4.47;;;;;;;27.31;45.46;99583.28;4985890;28;20101;-18
2023/06/13 10:50:03;;;;;;;6.78;4.32;;;;;;;27.40;44.00;99581.22;4985499;28;20429;-19
2023/06/13 10:52:29;;;;;;;8.82;4.53;;;;;;;27.54;42.79;99587.13;4985696;28;20038;-19
2023/06/13 10:54:58;;;;;;;7.07;4.05;;;;;;;27.55;43.28;99574.25;4987821;28;20037;-18
2023/06/13 10:57:51;;;;;;;6.03;3.70;;;;;;;27.11;42.69;99569.34;4989495;28;20121;-21
2023/06/13 11:00:30;;;;;;;6.47;3.70;;;;;;;27.08;42.96;99572.78;4989753;28;20031;-19
2023/06/13 11:03:11;;;;;;;7.78;4.78;;;;;;;28.07;42.48;99565.22;4989320;28;20045;-18
2023/06/13 11:06:04;;;;;;;6.20;4.13;;;;;;;28.24;41.08;99573.16;4989788;28;20112;-18
2023/06/13 11:08:29;;;;;;;7.95;4.45;;;;;;;28.32;41.71;99571.41;4989295;28;20031;-17
2023/06/13 11:10:55;;;;;;;7.05;4.05;;;;;;;28.98;41.20;99563.72;4989263;28;20046;-18
2023/06/13 11:13:23;;;;;;;6.75;4.03;;;;;;;28.42;39.35;99570.91;4989564;28;20019;-18
2023/06/13 11:15:50;;;;;;;;;;;;;;;27.89;41.71;99570.22;4990221;28;20049;-18
2023/06/13 11:18:18;;;;;;;6.88;4.00;;;;;;;27.85;40.09;99559.13;4989188;28;19928;-18
2023/06/13 11:20:55;;;;;;;5.97;3.92;;;;;;;28.51;40.20;99550.78;4989173;28;20125;-18
2023/06/13 11:23:32;;;;;;;7.67;3.93;;;;;;;29.10;39.88;99544.41;4989384;28;20412;-19
2023/06/13 11:25:58;;;;;;;7.82;4.22;;;;;;;29.11;37.54;99548.75;4989317;28;20037;-18
2023/06/13 11:28:24;;;;;;;8.60;3.78;;;;;;;29.20;38.51;99543.88;4988998;28;20113;-17
2023/06/13 11:30:52;;;;;;;7.70;4.22;;;;;;;28.42;39.21;99521.53;4989107;28;20023;-19